M I D A S
Marine Information and Data Acquisition System
Tripno 1889 of the Zeeleeuw from 2010-05-28 06:39:10 to 2010-05-28 13:46:39
Back to CruiseResearch ActivitiesStationsMapUnderway DataData graphs

EquipmentUnitsComment
TimeDGPSUTC
LatitudeDGPSDM.mWGS84
LongitudeDGPSDM.mWGS84
TemperatureSBE03/SBE38deg celciusITS90
ConductivitySBE21S/mITS90
SalinitySBE21 Practical Salinity Units
ChlorophylAChelsea fluorimeterg/lCalibrated in Aceton
Missing or incorrect values are displayed as -999
Sea surface data collected by the RV Zeeleeuw from 2010-05-28 06:24:11 to 2010-05-28 13:54:46
Time Latitude Longitude Temperature Conductivity Salinity ChlorophylA
2010-05-28 06:25:20 51°13.683 2°55.878 20.4012 0.070053 0.429316 -1.035392
2010-05-28 06:26:21 51°13.692 2°55.776 20.4047 0.070053 0.429308 -1.000568
2010-05-28 06:27:18 51°13.698 2°55.748 20.4109 0.070053 0.429324 -1.035392
2010-05-28 06:28:16 51°13.697 2°55.733 20.4833 0.070157 0.429977 -1.035392
2010-05-28 06:29:15 51°13.746 2°55.711 20.3625 0.070157 0.429977 -1.000568
2010-05-28 06:30:15 51°13.863 2°55.611 20.0817 0.070157 0.429953 -1.035392
2010-05-28 06:31:16 51°14.009 2°55.503 20.177 0.070157 0.429961 -1.000568
2010-05-28 06:32:16 51°14.159 2°55.398 20.3339 0.070157 0.429953 -1.035392
2010-05-28 06:33:17 51°14.275 2°55.295 20.4005 0.070157 0.429945 -1.000568
2010-05-28 06:34:17 51°14.34 2°55.224 20.4192 0.070157 0.429896 -1.070216
2010-05-28 06:35:16 51°14.417 2°55.167 20.3557 0.070157 0.429888 -1.070216
2010-05-28 06:36:16 51°14.558 2°55.028 20.0409 0.070157 0.42988 -1.000568
2010-05-28 06:37:16 51°14.738 2°54.844 20.1858 0.070157 0.429856 -1.035392
2010-05-28 06:38:16 51°14.915 2°54.641 20.1035 0.070157 0.429824 -1.000568
2010-05-28 06:39:16 51°15.084 2°54.424 20.0985 0.070157 0.4298 -1.000568
2010-05-28 06:40:16 51°15.257 2°54.208 20.0951 0.070157 0.429767 -1.035392
2010-05-28 06:41:16 51°15.429 2°53.983 20.0688 0.070157 0.429735 -1.035392
2010-05-28 06:42:16 51°15.602 2°53.757 20.0594 0.070157 0.429711 -1.035392
2010-05-28 06:43:16 51°15.773 2°53.529 20.0653 0.070157 0.429679 -1.035392
2010-05-28 06:44:16 51°15.957 2°53.337 20.0655 0.070157 0.429663 -1.035392
2010-05-28 06:45:16 51°16.151 2°53.186 20.0281 0.070157 0.429655 -1.000568
2010-05-28 06:46:16 51°16.345 2°53.037 20.0657 0.070261 0.430283 -1.035392
2010-05-28 06:47:16 51°16.538 2°52.887 20.0834 0.070261 0.430259 -1.000568
2010-05-28 06:48:16 51°16.733 2°52.749 20.0787 0.070261 0.430243 -1.035392
2010-05-28 06:49:16 51°16.923 2°52.618 20.0322 0.070261 0.430227 -1.000568
2010-05-28 06:50:16 51°17.122 2°52.554 20.0602 0.070261 0.430227 -1.035392
2010-05-28 06:51:16 51°17.313 2°52.591 20.0535 0.070261 0.430195 -1.035392
2010-05-28 06:52:16 51°17.466 2°52.737 20.0696 0.070261 0.430211 -1.000568
2010-05-28 06:53:16 51°17.606 2°52.904 20.0596 0.070261 0.430187 -1.000568
2010-05-28 06:54:16 51°17.699 2°53.011 20.115 0.070261 0.430187 -1.070216
2010-05-28 06:55:16 51°17.759 2°53.048 20.109 0.070261 0.430179 -1.035392
2010-05-28 06:56:16 51°17.802 2°53.069 20.1192 0.070261 0.430171 -1.035392
2010-05-28 06:57:16 51°17.842 2°53.083 20.0688 0.070261 0.430155 -1.035392
2010-05-28 06:58:16 51°17.909 2°53.165 20.0849 0.070261 0.430171 -1.035392
2010-05-28 06:59:16 51°17.962 2°53.196 20.1113 0.070261 0.430163 -1.035392
2010-05-28 07:00:16 51°17.961 2°53.19 20.1051 0.070261 0.430131 -1.035392
2010-05-28 07:01:16 51°17.954 2°53.179 20.1177 0.070261 0.430122 -1.000568
2010-05-28 07:02:16 51°17.944 2°53.169 20.1145 0.070261 0.430106 -1.035392
2010-05-28 07:03:16 51°17.93 2°53.16 20.1306 0.070261 0.430098 -1.035392
2010-05-28 07:04:16 51°17.916 2°53.152 20.1359 0.070261 0.430098 -1.035392
2010-05-28 07:05:16 51°17.9 2°53.144 20.1528 0.070261 0.430082 -1.035392
2010-05-28 07:06:16 51°17.9 2°53.139 20.1357 0.070261 0.430066 -1.000568
2010-05-28 07:07:16 51°17.918 2°53.238 20.147 0.070261 0.430122 -1.000568
2010-05-28 07:08:16 51°17.875 2°53.448 20.1608 0.070261 0.430074 -1.070216
2010-05-28 07:09:16 51°17.839 2°53.634 20.1933 0.070261 0.430066 -1.000568
2010-05-28 07:10:16 51°17.842 2°53.713 20.2109 0.070261 0.430066 -1.000568
2010-05-28 07:11:16 51°17.829 2°53.713 20.2191 0.070261 0.430026 -1.035392
2010-05-28 07:12:16 51°17.815 2°53.708 20.2182 0.070261 0.430018 -1.035392
2010-05-28 07:13:16 51°17.815 2°53.706 20.2249 0.070261 0.429994 -1.000568
2010-05-28 07:14:16 51°17.815 2°53.701 20.2275 0.070261 0.429994 -1.070216
2010-05-28 07:15:16 51°17.817 2°53.698 20.243 0.070261 0.429994 -1.035392
2010-05-28 07:16:16 51°17.82 2°53.694 20.2542 0.070261 0.429978 -1.000568
2010-05-28 07:17:16 51°17.821 2°53.692 20.2632 0.070261 0.429962 -1.035392
2010-05-28 07:18:16 51°17.821 2°53.691 20.2686 0.070261 0.429962 -1.000568
2010-05-28 07:19:16 51°17.821 2°53.691 20.2761 0.070261 0.429946 -1.035392
2010-05-28 07:20:16 51°17.823 2°53.691 20.2769 0.070261 0.429921 -1.035392
2010-05-28 07:21:16 51°17.823 2°53.691 20.2706 0.070261 0.429913 -1.035392
2010-05-28 07:22:16 51°17.823 2°53.69 20.2981 0.070261 0.429913 -1.035392
2010-05-28 07:23:17 51°17.823 2°53.69 20.3034 0.070261 0.429897 -1.000568
2010-05-28 07:24:17 51°17.824 2°53.69 20.3231 0.070261 0.429897 -1.035392
2010-05-28 07:25:16 51°17.823 2°53.69 20.3251 0.070261 0.429881 -1.000568
2010-05-28 07:26:16 51°17.823 2°53.69 20.3293 0.070261 0.429881 -1.000568
2010-05-28 07:27:16 51°17.823 2°53.69 20.341 0.070261 0.429873 -1.000568
2010-05-28 07:28:16 51°17.823 2°53.689 20.3549 0.070261 0.429881 -1.035392
2010-05-28 07:29:17 51°17.823 2°53.69 20.3786 0.070261 0.429865 -1.035392
2010-05-28 07:30:16 51°17.824 2°53.689 20.3813 0.070261 0.429857 -1.000568
2010-05-28 07:31:16 51°17.825 2°53.69 20.382 0.070261 0.429865 -1.035392
2010-05-28 07:32:16 51°17.825 2°53.689 20.3964 0.070261 0.429857 -1.000568
2010-05-28 07:33:17 51°17.825 2°53.688 20.3851 0.070261 0.429857 -1.000568
2010-05-28 07:34:17 51°17.826 2°53.688 20.4139 0.070261 0.429849 -1.070216
2010-05-28 07:35:17 51°17.826 2°53.687 20.4257 0.070261 0.429849 -1.000568
2010-05-28 07:36:17 51°17.825 2°53.688 20.4247 0.070261 0.429849 -1.070216
2010-05-28 07:37:17 51°17.825 2°53.688 20.4434 0.070261 0.429849 -1.035392
2010-05-28 07:38:16 51°17.826 2°53.688 20.4461 0.070261 0.429849 -1.035392
2010-05-28 07:39:16 51°17.826 2°53.687 20.4633 0.070261 0.429833 -1.035392
2010-05-28 07:40:16 51°17.825 2°53.687 20.4631 0.070261 0.429841 -1.035392
2010-05-28 07:41:16 51°17.825 2°53.687 20.4754 0.070261 0.429841 -1.000568
2010-05-28 07:42:16 51°17.824 2°53.688 20.4869 0.070261 0.429849 -1.035392
2010-05-28 07:43:16 51°17.825 2°53.688 20.4936 0.070261 0.429841 -1.035392
2010-05-28 07:44:15 51°17.826 2°53.688 20.5123 0.070261 0.429841 -1.035392
2010-05-28 07:45:16 51°17.826 2°53.688 20.5183 0.070261 0.429849 -1.000568
2010-05-28 07:46:16 51°17.827 2°53.687 20.5175 0.070261 0.429841 -1.000568
2010-05-28 07:47:16 51°17.827 2°53.686 20.5252 0.070261 0.429857 -1.070216
2010-05-28 07:48:16 51°17.827 2°53.687 20.5459 0.070261 0.429865 -1.035392
2010-05-28 07:49:16 51°17.827 2°53.687 20.5537 0.070261 0.429857 -1.035392
2010-05-28 07:50:16 51°17.828 2°53.687 20.5567 0.070261 0.429873 -1.070216
2010-05-28 07:51:16 51°17.827 2°53.686 20.5637 0.070261 0.429873 -1.035392
2010-05-28 07:52:16 51°17.826 2°53.686 20.5609 0.070261 0.429873 -1.035392
2010-05-28 07:53:16 51°17.825 2°53.686 20.5829 0.070261 0.429881 -1.070216
2010-05-28 07:54:16 51°17.826 2°53.686 20.5966 0.070261 0.429889 -1.035392
2010-05-28 07:55:16 51°17.824 2°53.687 20.6046 0.070261 0.429889 -1.035392
2010-05-28 07:56:16 51°17.824 2°53.686 20.6039 0.070261 0.429889 -1.000568
2010-05-28 07:57:16 51°17.824 2°53.686 20.6223 0.070261 0.429889 -1.000568
2010-05-28 07:58:16 51°17.824 2°53.687 20.6298 0.070261 0.429889 -1.000568
2010-05-28 07:59:16 51°17.823 2°53.686 20.6189 0.070261 0.429897 -1.035392
2010-05-28 08:00:16 51°17.823 2°53.687 20.635 0.070261 0.429897 -1.035392
2010-05-28 08:01:16 51°17.822 2°53.687 20.6546 0.070261 0.429897 -1.035392
2010-05-28 08:02:16 51°17.824 2°53.686 20.6597 0.070261 0.429905 -1.035392
2010-05-28 08:03:16 51°17.826 2°53.685 20.671 0.070261 0.429905 -1.035392
2010-05-28 08:04:16 51°17.825 2°53.686 20.6615 0.070261 0.429905 -1.035392
2010-05-28 08:05:16 51°17.827 2°53.684 20.6757 0.070261 0.429913 -1.000568
2010-05-28 08:06:16 51°17.827 2°53.685 20.6902 0.070261 0.429921 -1.000568
2010-05-28 08:07:16 51°17.826 2°53.685 20.697 0.070261 0.429921 -1.035392
2010-05-28 08:08:16 51°17.827 2°53.685 20.7015 0.070261 0.429921 -1.000568
2010-05-28 08:09:16 51°17.828 2°53.684 20.7206 0.070261 0.42993 -1.000568
2010-05-28 08:10:16 51°17.828 2°53.685 20.7206 0.070261 0.42993 -1.035392
2010-05-28 08:11:16 51°17.829 2°53.684 20.7323 0.070261 0.42993 -1.070216
2010-05-28 08:12:16 51°17.828 2°53.685 20.735 0.070261 0.429938 -1.035392
2010-05-28 08:13:16 51°17.827 2°53.685 20.7472 0.070261 0.429938 -1.035392
2010-05-28 08:14:16 51°17.826 2°53.685 20.747 0.070261 0.429938 -1.035392
2010-05-28 08:15:16 51°17.824 2°53.685 20.7527 0.070261 0.429946 -1.035392
2010-05-28 08:16:16 51°17.825 2°53.685 20.7677 0.070261 0.429946 -1.035392
2010-05-28 08:17:16 51°17.826 2°53.685 20.7853 0.070261 0.429938 -1.000568
2010-05-28 08:18:16 51°17.827 2°53.684 20.7928 0.070261 0.429954 -1.000568
2010-05-28 08:19:16 51°17.827 2°53.685 20.8 0.070261 0.429954 -1.035392
2010-05-28 08:20:16 51°17.829 2°53.683 20.8005 0.070261 0.429938 -1.035392
2010-05-28 08:21:16 51°17.828 2°53.685 20.808 0.070261 0.42997 -1.000568
2010-05-28 08:22:16 51°17.829 2°53.685 20.8215 0.070261 0.429962 -1.000568
2010-05-28 08:23:16 51°17.829 2°53.684 20.8031 0.070261 0.429962 -1.035392
2010-05-28 08:24:17 51°17.833 2°53.682 20.8085 0.070261 0.42997 -1.035392
2010-05-28 08:25:16 51°17.834 2°53.681 20.8283 0.070261 0.429954 -1.000568
2010-05-28 08:26:16 51°17.831 2°53.684 20.8342 0.070261 0.42997 -1.035392
2010-05-28 08:27:16 51°17.83 2°53.683 20.8397 0.070261 0.429962 -1.000568
2010-05-28 08:28:16 51°17.83 2°53.684 20.8433 0.070261 0.42997 -1.035392
2010-05-28 08:29:16 51°17.829 2°53.684 20.8564 0.070261 0.429978 -1.035392
2010-05-28 08:30:16 51°17.829 2°53.685 20.8589 0.070261 0.42997 -1.000568
2010-05-28 08:31:16 51°17.83 2°53.685 20.8723 0.070261 0.429978 -1.035392
2010-05-28 08:32:17 51°17.83 2°53.684 20.8815 0.070261 0.429978 -1.035392
2010-05-28 08:33:17 51°17.83 2°53.684 20.8813 0.070261 0.42997 -1.000568
2010-05-28 08:34:16 51°17.831 2°53.684 20.8883 0.070261 0.429986 -1.035392
2010-05-28 08:35:16 51°17.832 2°53.684 20.9027 0.070261 0.429978 -1.035392
2010-05-28 08:36:17 51°17.833 2°53.685 20.9073 0.070261 0.429978 -1.035392
2010-05-28 08:37:16 51°17.832 2°53.684 20.9075 0.070261 0.429978 -1.035392
2010-05-28 08:38:16 51°17.83 2°53.684 20.9149 0.070261 0.429986 -1.035392
2010-05-28 08:39:16 51°17.829 2°53.685 20.9258 0.070261 0.429994 -1.035392
2010-05-28 08:40:16 51°17.829 2°53.685 20.9234 0.070261 0.429986 -1.035392
2010-05-28 08:41:16 51°17.829 2°53.685 20.9319 0.070261 0.429994 -1.000568
2010-05-28 08:42:17 51°17.828 2°53.685 20.9394 0.070261 0.43001 -1.035392
2010-05-28 08:43:17 51°17.829 2°53.685 20.9392 0.070261 0.43001 -1.000568
2010-05-28 08:44:16 51°17.831 2°53.684 20.9449 0.070261 0.43001 -1.035392
2010-05-28 08:45:16 51°17.831 2°53.684 20.9537 0.070157 0.42935 -1.035392
2010-05-28 08:46:16 51°17.83 2°53.685 20.9568 0.070261 0.430018 -1.000568
2010-05-28 08:47:16 51°17.829 2°53.684 20.9611 0.070261 0.430026 -1.035392
2010-05-28 08:48:17 51°17.829 2°53.684 20.9677 0.070261 0.430018 -1.000568
2010-05-28 08:49:17 51°17.829 2°53.684 20.9626 0.070261 0.430018 -1.035392
2010-05-28 08:50:17 51°17.829 2°53.685 20.9812 0.070261 0.430026 -1.000568
2010-05-28 08:51:16 51°17.829 2°53.684 20.9895 0.070157 0.429374 -1.000568
2010-05-28 08:52:16 51°17.829 2°53.685 20.9901 0.070157 0.429382 -1.035392
2010-05-28 08:53:16 51°17.828 2°53.685 20.9872 0.070261 0.43005 -1.000568
2010-05-28 08:54:16 51°17.828 2°53.686 21.0005 0.070157 0.429398 -1.035392
2010-05-28 08:55:16 51°17.828 2°53.686 21.0107 0.070157 0.429398 -1.035392
2010-05-28 08:56:16 51°17.828 2°53.686 21.0098 0.070261 0.430066 -1.035392
2010-05-28 08:57:16 51°17.829 2°53.685 21.0193 0.070261 0.430066 -1.035392
2010-05-28 08:58:16 51°17.829 2°53.685 21.0203 0.070157 0.429422 -1.035392
2010-05-28 08:59:16 51°17.829 2°53.685 21.0276 0.070261 0.430074 -1.000568
2010-05-28 09:00:16 51°17.828 2°53.686 21.0266 0.070157 0.429422 -1.070216
2010-05-28 09:01:17 51°17.828 2°53.685 21.0369 0.070157 0.42943 -1.035392
2010-05-28 09:02:16 51°17.827 2°53.687 21.0406 0.070157 0.429438 -1.000568
2010-05-28 09:03:16 51°17.826 2°53.687 21.0337 0.070157 0.429454 -1.035392
2010-05-28 09:04:16 51°17.826 2°53.687 21.0482 0.070157 0.429462 -1.035392
2010-05-28 09:05:16 51°17.826 2°53.687 21.0554 0.070157 0.429462 -1.000568
2010-05-28 09:06:16 51°17.826 2°53.687 21.0611 0.070157 0.42947 -1.000568
2010-05-28 09:07:16 51°17.826 2°53.686 21.0663 0.070157 0.429478 -1.035392
2010-05-28 09:08:16 51°17.827 2°53.686 21.0743 0.070157 0.429502 -1.000568
2010-05-28 09:09:16 51°17.828 2°53.686 21.0712 0.070157 0.429494 -1.035392
2010-05-28 09:10:16 51°17.829 2°53.686 21.0721 0.070157 0.42951 -1.035392
2010-05-28 09:11:17 51°17.829 2°53.686 21.078 0.070157 0.429542 -1.000568
2010-05-28 09:12:16 51°17.828 2°53.686 21.084 0.070157 0.429526 -1.035392
2010-05-28 09:13:16 51°17.828 2°53.686 21.0855 0.070157 0.429526 -1.070216
2010-05-28 09:14:16 51°17.827 2°53.686 21.0876 0.070157 0.429542 -1.035392
2010-05-28 09:15:16 51°17.828 2°53.687 21.0972 0.070157 0.42955 -1.035392
2010-05-28 09:16:16 51°17.828 2°53.686 21.0981 0.070157 0.429566 -1.000568
2010-05-28 09:17:16 51°17.829 2°53.686 21.0908 0.070157 0.429583 -1.035392
2010-05-28 09:18:17 51°17.829 2°53.685 21.104 0.070157 0.429583 -1.000568
2010-05-28 09:19:16 51°17.83 2°53.686 21.1135 0.070157 0.429599 -1.035392
2010-05-28 09:20:16 51°17.831 2°53.686 21.1161 0.070157 0.429607 -1.035392
2010-05-28 09:21:16 51°17.83 2°53.685 21.1191 0.070157 0.429631 -1.000568
2010-05-28 09:22:17 51°17.829 2°53.685 21.1123 0.070157 0.429639 -1.035392
2010-05-28 09:23:16 51°17.828 2°53.685 21.1185 0.070157 0.429647 -1.000568
2010-05-28 09:24:16 51°17.828 2°53.687 21.1281 0.070157 0.429655 -1.000568
2010-05-28 09:25:16 51°17.827 2°53.687 21.1288 0.070157 0.429655 -1.000568
2010-05-28 09:26:16 51°17.827 2°53.687 21.1197 0.070157 0.429671 -1.035392
2010-05-28 09:27:16 51°17.827 2°53.687 21.1319 0.070157 0.429679 -1.000568
2010-05-28 09:28:16 51°17.828 2°53.689 21.1396 0.070157 0.429695 -1.000568
2010-05-28 09:29:16 51°17.828 2°53.688 21.1417 0.070157 0.429703 -1.035392
2010-05-28 09:30:16 51°17.828 2°53.688 21.1482 0.070157 0.429703 -1.035392
2010-05-28 09:31:16 51°17.828 2°53.688 21.1521 0.070157 0.429711 -1.035392
2010-05-28 09:32:16 51°17.826 2°53.689 21.1528 0.070157 0.429727 -1.035392
2010-05-28 09:33:16 51°17.826 2°53.69 21.1603 0.070157 0.429743 -1.035392
2010-05-28 09:34:16 51°17.825 2°53.69 21.1598 0.070157 0.429751 -1.000568
2010-05-28 09:35:16 51°17.825 2°53.69 21.1642 0.070157 0.429751 -1.035392
2010-05-28 09:36:16 51°17.825 2°53.69 21.1613 0.070157 0.429784 -1.035392
2010-05-28 09:37:16 51°17.825 2°53.689 21.1723 0.070157 0.429776 -1.035392
2010-05-28 09:38:16 51°17.826 2°53.69 21.1722 0.070157 0.429792 -1.035392
2010-05-28 09:39:16 51°17.826 2°53.689 21.1836 0.070157 0.4298 -1.035392
2010-05-28 09:40:16 51°17.826 2°53.689 21.1787 0.070157 0.429808 -1.035392
2010-05-28 09:41:16 51°17.826 2°53.69 21.1877 0.070157 0.429832 -1.070216
2010-05-28 09:42:16 51°17.826 2°53.691 21.1837 0.070157 0.42984 -1.000568
2010-05-28 09:43:16 51°17.825 2°53.691 21.1792 0.070157 0.42984 -1.000568
2010-05-28 09:44:16 51°17.824 2°53.691 21.188 0.070157 0.429856 -1.035392
2010-05-28 09:45:16 51°17.823 2°53.693 21.1911 0.070157 0.429864 -1.035392
2010-05-28 09:46:16 51°17.822 2°53.693 21.185 0.070157 0.429864 -1.070216
2010-05-28 09:47:16 51°17.823 2°53.693 21.1794 0.070053 0.429227 -1.035392
2010-05-28 09:48:16 51°17.822 2°53.693 21.1911 0.070053 0.429219 -1.035392
2010-05-28 09:49:16 51°17.823 2°53.693 21.1962 0.070053 0.429227 -1.000568
2010-05-28 09:50:16 51°17.824 2°53.692 21.1978 0.070053 0.429235 -1.000568
2010-05-28 09:51:16 51°17.824 2°53.692 21.1967 0.070053 0.429227 -1.000568
2010-05-28 09:52:16 51°17.824 2°53.692 21.1955 0.070053 0.429243 -1.070216
2010-05-28 09:53:17 51°17.824 2°53.693 21.1962 0.070053 0.429243 -1.070216
2010-05-28 09:54:16 51°17.823 2°53.694 21.2015 0.070053 0.429251 -1.035392
2010-05-28 09:55:16 51°17.823 2°53.694 21.1937 0.070053 0.429251 -1.035392
2010-05-28 09:56:16 51°17.823 2°53.694 21.2068 0.070053 0.429243 -1.000568
2010-05-28 09:57:16 51°17.822 2°53.695 21.1906 0.070053 0.429259 -1.035392
2010-05-28 09:58:17 51°17.821 2°53.697 21.1984 0.070053 0.429251 -1.035392
2010-05-28 09:59:17 51°17.82 2°53.698 21.1946 0.070053 0.429259 -1.035392
2010-05-28 10:00:17 51°17.82 2°53.699 21.208 0.070053 0.429267 -1.035392
2010-05-28 10:01:16 51°17.819 2°53.701 21.2097 0.070053 0.429275 -1.000568
2010-05-28 10:02:17 51°17.819 2°53.703 21.2106 0.070053 0.429275 -1.070216
2010-05-28 10:03:17 51°17.819 2°53.703 21.207 0.070053 0.429259 -1.000568
2010-05-28 10:04:17 51°17.82 2°53.703 21.2072 0.070053 0.429275 -1.035392
2010-05-28 10:05:17 51°17.819 2°53.704 21.2108 0.070053 0.429267 -1.035392
2010-05-28 10:06:16 51°17.82 2°53.704 21.2032 0.070053 0.429283 -1.000568
2010-05-28 10:07:16 51°17.819 2°53.703 21.2105 0.070053 0.429275 -1.000568
2010-05-28 10:08:16 51°17.819 2°53.703 21.2095 0.070053 0.429283 -1.000568
2010-05-28 10:09:16 51°17.818 2°53.705 21.2202 0.070053 0.429275 -1.035392
2010-05-28 10:10:16 51°17.818 2°53.706 21.2198 0.070053 0.429283 -1.000568
2010-05-28 10:11:16 51°17.817 2°53.708 21.2184 0.070053 0.429283 -1.035392
2010-05-28 10:12:16 51°17.817 2°53.709 21.2151 0.070053 0.429283 -1.000568
2010-05-28 10:13:16 51°17.818 2°53.709 21.223 0.070053 0.429267 -1.035392
2010-05-28 10:14:16 51°17.817 2°53.712 21.2237 0.070053 0.429267 -1.035392
2010-05-28 10:15:15 51°17.816 2°53.715 21.2262 0.070053 0.429267 -1.035392
2010-05-28 10:16:16 51°17.816 2°53.718 21.2157 0.070053 0.429275 -1.000568
2010-05-28 10:17:16 51°17.818 2°53.721 21.2244 0.070053 0.429267 -1.035392
2010-05-28 10:18:17 51°17.817 2°53.723 21.2249 0.070053 0.429275 -1.035392
2010-05-28 10:19:16 51°17.817 2°53.726 21.2244 0.070053 0.429267 -1.000568
2010-05-28 10:20:16 51°17.819 2°53.729 21.2254 0.070053 0.429267 -1.035392
2010-05-28 10:21:16 51°17.819 2°53.731 21.2217 0.070053 0.429267 -1.000568
2010-05-28 10:22:16 51°17.82 2°53.733 21.2284 0.070053 0.429275 -1.000568
2010-05-28 10:23:16 51°17.82 2°53.734 21.2295 0.070053 0.429259 -1.000568
2010-05-28 10:24:16 51°17.82 2°53.739 21.2246 0.070053 0.429259 -1.035392
2010-05-28 10:25:15 51°17.82 2°53.743 21.2316 0.070053 0.429251 -1.035392
2010-05-28 10:26:15 51°17.822 2°53.747 21.231 0.070053 0.429251 -1.000568
2010-05-28 10:27:15 51°17.824 2°53.75 21.2338 0.070053 0.429259 -1.000568
2010-05-28 10:28:15 51°17.825 2°53.752 21.2345 0.070053 0.429243 -1.035392
2010-05-28 10:29:15 51°17.825 2°53.752 21.2371 0.070053 0.429235 -1.035392
2010-05-28 10:30:16 51°17.825 2°53.757 21.2285 0.070053 0.429219 -1.035392
2010-05-28 10:31:18 51°17.826 2°53.761 21.2275 0.070053 0.429219 -1.000568
2010-05-28 10:32:18 51°17.827 2°53.761 21.2314 0.070053 0.429203 -1.035392
2010-05-28 10:33:16 51°17.829 2°53.763 21.2398 0.070053 0.429195 -1.000568
2010-05-28 10:34:16 51°17.831 2°53.764 21.2429 0.070053 0.429179 -1.035392
2010-05-28 10:35:16 51°17.831 2°53.766 21.2417 0.070053 0.429171 -1.000568
2010-05-28 10:36:16 51°17.833 2°53.767 21.2427 0.070053 0.429155 -1.000568
2010-05-28 10:37:16 51°17.834 2°53.767 21.2509 0.070053 0.429139 -1.000568
2010-05-28 10:38:16 51°17.835 2°53.767 21.2462 0.070053 0.429131 -1.035392
2010-05-28 10:39:47 51°17.825 2°53.776 21.249 0.070053 0.429099 -1.035392
2010-05-28 10:41:32 51°17.819 2°53.778 21.2592 0.070053 0.429066 -1.035392
2010-05-28 10:42:32 51°17.771 2°53.816 21.2607 0.070053 0.429042 -1.000568
2010-05-28 10:43:32 51°17.772 2°53.817 21.2656 0.070053 0.429018 -1.035392
2010-05-28 10:44:32 51°17.775 2°53.816 21.2672 0.070053 0.428994 -1.000568
2010-05-28 10:45:32 51°17.778 2°53.814 21.2667 0.070053 0.42897 -1.000568
2010-05-28 10:46:32 51°17.78 2°53.814 21.2563 0.070053 0.42893 -1.035392
2010-05-28 10:47:32 51°17.784 2°53.81 21.2712 0.070157 0.429558 -1.035392
2010-05-28 10:48:32 51°17.788 2°53.81 21.2693 0.070157 0.429526 -1.035392
2010-05-28 10:49:32 51°17.792 2°53.807 21.2859 0.070157 0.429494 -1.035392
2010-05-28 10:50:32 51°17.795 2°53.806 21.2868 0.070157 0.429446 -1.000568
2010-05-28 10:51:32 51°17.798 2°53.803 21.291 0.070157 0.429414 -1.035392
2010-05-28 10:52:32 51°17.841 2°53.766 21.2945 0.070157 0.429374 -1.035392
2010-05-28 10:53:32 51°17.841 2°53.765 21.2951 0.070157 0.429326 -1.035392
2010-05-28 10:54:32 51°17.842 2°53.767 21.2989 0.070157 0.429293 -1.035392
2010-05-28 10:55:32 51°17.845 2°53.766 21.2975 0.070157 0.429253 -1.070216
2010-05-28 10:56:32 51°17.845 2°53.767 21.3048 0.070157 0.429221 -1.035392
2010-05-28 10:57:32 51°17.845 2°53.768 21.2978 0.070157 0.429173 -1.000568
2010-05-28 10:58:32 51°17.844 2°53.767 21.3031 0.070157 0.429133 -1.000568
2010-05-28 10:59:32 51°17.843 2°53.767 21.3129 0.070157 0.429101 -1.035392
2010-05-28 11:00:32 51°17.842 2°53.768 21.3069 0.070157 0.429069 -1.000568
2010-05-28 11:01:32 51°17.843 2°53.768 21.3103 0.070157 0.429021 -1.035392
2010-05-28 11:02:32 51°17.845 2°53.767 21.3186 0.070157 0.428973 -1.035392
2010-05-28 11:03:32 51°17.846 2°53.767 21.3134 0.070157 0.428933 -1.035392
2010-05-28 11:04:32 51°17.846 2°53.768 21.324 0.070261 0.42956 -1.035392
2010-05-28 11:05:32 51°17.846 2°53.768 21.3266 0.070157 0.428861 -1.035392
2010-05-28 11:06:32 51°17.845 2°53.769 21.3279 0.070157 0.428821 -1.070216
2010-05-28 11:07:32 51°17.843 2°53.769 21.3305 0.070261 0.429448 -1.000568
2010-05-28 11:08:32 51°17.842 2°53.769 21.3309 0.070261 0.429408 -1.000568
2010-05-28 11:09:32 51°17.842 2°53.769 21.3302 0.070261 0.429368 -1.000568
2010-05-28 11:10:32 51°17.843 2°53.769 21.3405 0.070261 0.429344 -1.000568
2010-05-28 11:11:32 51°17.844 2°53.77 21.3315 0.070261 0.429312 -1.035392
2010-05-28 11:12:32 51°17.847 2°53.768 21.3425 0.070261 0.429288 -1.035392
2010-05-28 11:13:32 51°17.849 2°53.768 21.3373 0.070261 0.429256 -1.035392
2010-05-28 11:14:32 51°17.848 2°53.769 21.3406 0.070261 0.429216 -1.035392
2010-05-28 11:15:32 51°17.848 2°53.769 21.3428 0.070261 0.429184 -1.035392
2010-05-28 11:16:32 51°17.847 2°53.769 21.351 0.070261 0.42916 -1.035392
2010-05-28 11:17:32 51°17.847 2°53.769 21.3565 0.070261 0.429128 -1.035392
2010-05-28 11:18:32 51°17.848 2°53.769 21.3436 0.070261 0.429096 -1.000568
2010-05-28 11:19:32 51°17.849 2°53.769 21.3612 0.070261 0.429072 -1.035392
2010-05-28 11:20:32 51°17.85 2°53.769 21.3604 0.070261 0.42904 -1.035392
2010-05-28 11:21:32 51°17.851 2°53.768 21.3631 0.070261 0.429 -1.000568
2010-05-28 11:22:32 51°17.849 2°53.769 21.3575 0.070261 0.428984 -1.035392
2010-05-28 11:23:32 51°17.849 2°53.77 21.361 0.070261 0.428952 -1.035392
2010-05-28 11:24:32 51°17.849 2°53.77 21.3691 0.070261 0.42892 -1.035392
2010-05-28 11:25:32 51°17.848 2°53.77 21.3675 0.070261 0.428904 -1.035392
2010-05-28 11:26:32 51°17.849 2°53.77 21.3722 0.070365 0.42953 -1.000568
2010-05-28 11:27:32 51°17.85 2°53.768 21.374 0.070261 0.428848 -1.035392
2010-05-28 11:28:32 51°17.85 2°53.769 21.3824 0.070365 0.429466 -1.035392
2010-05-28 11:29:32 51°17.849 2°53.771 21.3796 0.070365 0.42945 -1.000568
2010-05-28 11:30:32 51°17.85 2°53.769 21.3787 0.070365 0.42941 -1.035392
2010-05-28 11:31:32 51°17.85 2°53.77 21.388 0.070365 0.429394 -1.035392
2010-05-28 11:32:32 51°17.849 2°53.77 21.3908 0.070365 0.42937 -1.070216
2010-05-28 11:33:32 51°17.849 2°53.771 21.3885 0.070365 0.429338 -1.035392
2010-05-28 11:34:33 51°17.85 2°53.771 21.3852 0.070365 0.429306 -1.000568
2010-05-28 11:35:32 51°17.852 2°53.77 21.3916 0.070365 0.429298 -1.000568
2010-05-28 11:36:32 51°17.853 2°53.767 21.3855 0.070365 0.429266 -1.070216
2010-05-28 11:37:32 51°17.853 2°53.766 21.3963 0.070365 0.429234 -1.035392
2010-05-28 11:38:32 51°17.855 2°53.761 21.4011 0.070365 0.429211 -1.070216
2010-05-28 11:39:32 51°17.855 2°53.761 21.4096 0.070365 0.429195 -1.000568
2010-05-28 11:40:32 51°17.856 2°53.759 21.3995 0.070365 0.429163 -1.000568
2010-05-28 11:41:32 51°17.857 2°53.756 21.4014 0.070365 0.429139 -1.035392
2010-05-28 11:42:32 51°17.859 2°53.754 21.4156 0.070365 0.429115 -1.035392
2010-05-28 11:43:32 51°17.861 2°53.751 21.4168 0.070365 0.429083 -1.000568
2010-05-28 11:44:32 51°17.862 2°53.747 21.4166 0.070365 0.429059 -1.000568
2010-05-28 11:45:32 51°17.863 2°53.744 21.4133 0.070365 0.429043 -1.070216
2010-05-28 11:46:32 51°17.865 2°53.738 21.4254 0.070365 0.429003 -1.035392
2010-05-28 11:47:32 51°17.867 2°53.737 21.4183 0.070365 0.428987 -1.000568
2010-05-28 11:48:32 51°17.872 2°53.724 21.431 0.070365 0.428955 -1.035392
2010-05-28 11:49:32 51°17.874 2°53.72 21.4222 0.070365 0.428931 -1.000568
2010-05-28 11:50:32 51°17.876 2°53.71 21.4178 0.070469 0.429565 -1.000568
2010-05-28 11:51:32 51°17.879 2°53.708 21.4327 0.070469 0.429533 -1.035392
2010-05-28 11:52:31 51°17.88 2°53.706 21.4363 0.070469 0.429509 -1.035392
2010-05-28 11:53:32 51°17.879 2°53.71 21.4497 0.070469 0.429485 -1.035392
2010-05-28 11:54:32 51°17.879 2°53.712 21.4364 0.070469 0.429485 -1.035392
2010-05-28 11:55:32 51°17.836 2°53.836 21.4328 0.070469 0.429421 -1.035392
2010-05-28 11:56:32 51°17.856 2°53.765 21.4341 0.070469 0.429405 -1.000568
2010-05-28 11:57:32 51°17.856 2°53.765 21.4359 0.070469 0.429381 -1.035392
2010-05-28 11:58:32 51°17.856 2°53.765 21.4421 0.070469 0.429349 -1.035392
2010-05-28 11:59:32 51°17.856 2°53.765 21.4382 0.070469 0.429325 -1.035392
2010-05-28 12:00:32 51°17.856 2°53.765 21.446 0.070469 0.429293 -1.035392
2010-05-28 12:01:32 51°17.855 2°53.766 21.4497 0.070469 0.429277 -1.035392
2010-05-28 12:02:32 51°17.856 2°53.764 21.4563 0.070469 0.429245 -1.035392
2010-05-28 12:03:32 51°17.856 2°53.765 21.4569 0.070469 0.429214 -1.000568
2010-05-28 12:04:32 51°17.857 2°53.763 21.4602 0.070469 0.42919 -1.035392
2010-05-28 12:05:32 51°17.858 2°53.763 21.4632 0.070469 0.429166 -1.000568
2010-05-28 12:06:32 51°17.858 2°53.762 21.4585 0.070469 0.429142 -1.000568
2010-05-28 12:07:32 51°17.857 2°53.764 21.4652 0.070469 0.429102 -1.070216
2010-05-28 12:08:32 51°17.857 2°53.764 21.4597 0.070469 0.429094 -1.035392
2010-05-28 12:09:32 51°17.857 2°53.764 21.467 0.070469 0.429062 -1.070216
2010-05-28 12:10:32 51°17.857 2°53.764 21.4679 0.070573 0.429687 -1.035392
2010-05-28 12:11:32 51°17.858 2°53.764 21.4651 0.070573 0.429655 -1.000568
2010-05-28 12:12:32 51°17.857 2°53.764 21.4749 0.070469 0.428982 -1.000568
2010-05-28 12:13:32 51°17.857 2°53.764 21.4756 0.070573 0.429607 -1.000568
2010-05-28 12:14:32 51°17.857 2°53.764 21.4789 0.070573 0.429575 -1.035392
2010-05-28 12:15:32 51°17.857 2°53.763 21.4763 0.070573 0.429551 -1.000568
2010-05-28 12:16:32 51°17.859 2°53.762 21.4794 0.070573 0.429528 -1.035392
2010-05-28 12:17:32 51°17.859 2°53.762 21.4811 0.070573 0.429488 -1.035392
2010-05-28 12:18:32 51°17.859 2°53.761 21.4815 0.070573 0.429456 -1.035392
2010-05-28 12:19:32 51°17.858 2°53.763 21.4807 0.070573 0.429416 -1.035392
2010-05-28 12:20:32 51°17.856 2°53.763 21.4884 0.070573 0.429408 -1.035392
2010-05-28 12:21:32 51°17.856 2°53.764 21.4856 0.070573 0.429376 -1.035392
2010-05-28 12:22:32 51°17.857 2°53.763 21.4927 0.070573 0.429328 -1.035392
2010-05-28 12:23:32 51°17.858 2°53.763 21.4909 0.070573 0.429304 -1.035392
2010-05-28 12:24:32 51°17.859 2°53.762 21.4828 0.070573 0.429289 -1.000568
2010-05-28 12:25:32 51°17.859 2°53.763 21.4965 0.070573 0.429249 -1.035392
2010-05-28 12:26:32 51°17.859 2°53.762 21.4937 0.070573 0.429217 -1.035392
2010-05-28 12:27:32 51°17.859 2°53.762 21.4922 0.070573 0.429177 -1.070216
2010-05-28 12:28:32 51°17.859 2°53.761 21.4956 0.070573 0.429161 -1.035392
2010-05-28 12:29:32 51°17.86 2°53.761 21.4984 0.070573 0.429113 -1.070216
2010-05-28 12:30:32 51°17.859 2°53.761 21.5047 0.070573 0.42909 -1.035392
2010-05-28 12:31:32 51°17.859 2°53.762 21.5028 0.070573 0.429066 -1.035392
2010-05-28 12:32:32 51°17.859 2°53.762 21.4977 0.070573 0.429026 -1.035392
2010-05-28 12:33:32 51°17.86 2°53.761 21.5101 0.070677 0.42965 -1.000568
2010-05-28 12:34:32 51°17.86 2°53.76 21.5097 0.070677 0.429618 -1.070216
2010-05-28 12:35:32 51°17.86 2°53.76 21.5116 0.070677 0.429594 -1.035392
2010-05-28 12:36:32 51°17.858 2°53.763 21.5139 0.070677 0.42957 -1.070216
2010-05-28 12:37:32 51°17.857 2°53.763 21.5135 0.070677 0.429523 -1.035392
2010-05-28 12:38:32 51°17.856 2°53.763 21.5165 0.070677 0.429491 -1.000568
2010-05-28 12:39:32 51°17.857 2°53.764 21.5186 0.070677 0.429459 -1.035392
2010-05-28 12:40:32 51°17.858 2°53.762 21.5142 0.070677 0.429427 -1.000568
2010-05-28 12:41:32 51°17.859 2°53.762 21.5216 0.070677 0.429395 -1.000568
2010-05-28 12:42:32 51°17.858 2°53.762 21.525 0.070677 0.429364 -1.070216
2010-05-28 12:43:32 51°17.858 2°53.762 21.5227 0.070677 0.429332 -1.000568
2010-05-28 12:44:32 51°17.858 2°53.762 21.5277 0.070677 0.429284 -1.035392
2010-05-28 12:45:32 51°17.859 2°53.761 21.5283 0.070677 0.429268 -1.035392
2010-05-28 12:46:32 51°17.859 2°53.76 21.53 0.070677 0.429236 -1.035392
2010-05-28 12:47:32 51°17.859 2°53.761 21.5161 0.070677 0.429197 -1.035392
2010-05-28 12:48:32 51°17.86 2°53.76 21.5295 0.070677 0.429173 -1.035392
2010-05-28 12:49:32 51°17.861 2°53.76 21.531 0.070677 0.429141 -1.000568
2010-05-28 12:50:32 51°17.861 2°53.759 21.5312 0.070782 0.42974 -1.000568
2010-05-28 12:51:32 51°17.861 2°53.759 21.5305 0.070677 0.429054 -1.035392
2010-05-28 12:52:32 51°17.861 2°53.758 21.5367 0.070782 0.429669 -1.035392
2010-05-28 12:53:32 51°17.861 2°53.758 21.5233 0.070782 0.429637 -1.035392
2010-05-28 12:54:32 51°17.861 2°53.759 21.5363 0.070782 0.429605 -1.000568
2010-05-28 12:55:32 51°17.86 2°53.759 21.5327 0.070782 0.429566 -1.035392
2010-05-28 12:56:32 51°17.86 2°53.76 21.5413 0.070782 0.429518 -1.000568
2010-05-28 12:57:32 51°17.86 2°53.759 21.5381 0.070782 0.429478 -1.000568
2010-05-28 12:58:32 51°17.86 2°53.759 21.5292 0.070782 0.429454 -1.000568
2010-05-28 12:59:32 51°17.859 2°53.76 21.5461 0.070782 0.429399 -1.035392
2010-05-28 13:00:32 51°17.859 2°53.757 21.5407 0.070782 0.429359 -1.035392
2010-05-28 13:01:32 51°17.86 2°53.76 21.5458 0.070781 0.42932 -1.000568
2010-05-28 13:02:32 51°17.859 2°53.759 21.5412 0.070781 0.429296 -1.000568
2010-05-28 13:03:32 51°17.859 2°53.762 21.5491 0.070781 0.429248 -1.035392
2010-05-28 13:04:31 51°17.859 2°53.761 21.5386 0.070781 0.429216 -1.035392
2010-05-28 13:05:32 51°17.861 2°53.759 21.5527 0.070781 0.429177 -1.035392
2010-05-28 13:06:32 51°17.862 2°53.757 21.553 0.070886 0.429783 -1.035392
2010-05-28 13:07:32 51°17.862 2°53.758 21.5554 0.070886 0.429744 -1.035392
2010-05-28 13:08:31 51°17.861 2°53.759 21.5549 0.070886 0.429696 -1.035392
2010-05-28 13:09:31 51°17.86 2°53.759 21.5539 0.070886 0.429656 -1.035392
2010-05-28 13:10:31 51°17.86 2°53.76 21.5588 0.070886 0.429617 -1.000568
2010-05-28 13:11:31 51°17.86 2°53.76 21.5508 0.070886 0.429569 -1.035392
2010-05-28 13:12:32 51°17.86 2°53.759 21.5587 0.070886 0.429529 -1.035392
2010-05-28 13:13:32 51°17.862 2°53.758 21.5612 0.070886 0.429498 -1.000568
2010-05-28 13:14:32 51°17.862 2°53.758 21.5653 0.070886 0.42945 -1.035392
2010-05-28 13:15:32 51°17.862 2°53.756 21.5522 0.070886 0.429419 -1.000568
2010-05-28 13:16:32 51°17.863 2°53.756 21.5619 0.070886 0.429371 -1.035392
2010-05-28 13:17:32 51°17.862 2°53.757 21.5578 0.070886 0.429308 -1.000568
2010-05-28 13:18:32 51°17.862 2°53.757 21.5609 0.070886 0.429276 -1.035392
2010-05-28 13:19:32 51°17.862 2°53.757 21.5609 0.070886 0.429236 -1.070216
2010-05-28 13:20:32 51°17.862 2°53.755 21.5498 0.07099 0.429826 -1.035392
2010-05-28 13:21:32 51°17.856 2°53.745 21.5592 0.07099 0.429779 -1.035392
2010-05-28 13:22:32 51°17.851 2°53.735 21.5583 0.07099 0.429739 -1.035392
2010-05-28 13:23:32 51°17.846 2°53.73 21.5476 0.07099 0.429684 -1.000568
2010-05-28 13:24:32 51°17.843 2°53.724 21.5597 0.07099 0.429628 -1.000568
2010-05-28 13:25:32 51°17.814 2°53.663 21.5573 0.07099 0.429581 -1.035392
2010-05-28 13:26:32 51°17.75 2°53.55 21.5544 0.07099 0.42951 -1.035392
2010-05-28 13:27:32 51°17.672 2°53.371 21.5503 0.07099 0.429494 -1.035392
2010-05-28 13:28:32 51°17.575 2°53.166 21.5374 0.07099 0.429454 -1.035392
2010-05-28 13:29:32 51°17.465 2°52.945 21.533 0.07099 0.429415 -1.070216
2010-05-28 13:30:32 51°17.34 2°52.719 21.5478 0.07099 0.429359 -1.035392
2010-05-28 13:31:32 51°17.175 2°52.556 21.559 0.071094 0.429988 -1.035392
2010-05-28 13:32:32 51°16.977 2°52.621 21.5579 0.071094 0.429948 -1.035392
2010-05-28 13:33:32 51°16.792 2°52.801 21.5402 0.071094 0.429885 -1.035392
2010-05-28 13:34:32 51°16.595 2°52.938 21.558 0.071094 0.429861 -1.035392
2010-05-28 13:35:32 51°16.399 2°53.071 21.5687 0.071094 0.429846 -1.000568
2010-05-28 13:36:32 51°16.201 2°53.208 21.5641 0.071094 0.42979 -1.035392
2010-05-28 13:37:32 51°16.003 2°53.344 21.5708 0.071094 0.429759 -1.000568
2010-05-28 13:38:32 51°15.813 2°53.516 21.5685 0.071094 0.429743 -1.000568
2010-05-28 13:39:32 51°15.627 2°53.713 21.5762 0.071094 0.429703 -1.035392
2010-05-28 13:40:32 51°15.451 2°53.935 21.5756 0.071094 0.429656 -1.000568
2010-05-28 13:41:32 51°15.277 2°54.161 21.5751 0.071094 0.429601 -1.035392
2010-05-28 13:42:32 51°15.102 2°54.386 21.5781 0.071094 0.429577 -1.035392
2010-05-28 13:43:32 51°14.933 2°54.617 21.5542 0.071094 0.42953 -1.035392
2010-05-28 13:44:32 51°14.751 2°54.808 21.5847 0.071094 0.42949 -1.070216
2010-05-28 13:45:32 51°14.568 2°55.011 21.5777 0.071094 0.429427 -1.035392
2010-05-28 13:46:32 51°14.382 2°55.198 21.5981 0.071198 0.430063 -1.035392
2010-05-28 13:47:32 51°14.213 2°55.352 21.5976 0.071198 0.430031 -1.035392
2010-05-28 13:50:56 51°14.138 2°55.418 21.6543 0.071198 0.429873 -1.000568
2010-05-28 13:51:56 51°13.746 2°55.725 21.6614 0.071198 0.429849 -1.035392
2010-05-28 13:52:56 51°13.691 2°55.848 21.643 0.071198 0.42977 -1.035392
2010-05-28 13:53:56 51°13.665 2°55.941 21.6403 0.071198 0.429739 -1.035392